Time;durP1;ratioP1;P1;durP2;ratioP2;P2;SDS_P1;SDS_P2;PMS_P1;PMS_P2;Temp;Humidity;BMP_temperature;BMP_pressure;BME280_temperature;BME280_humidity;BME280_pressure;Samples;Min_cycle;Max_cycle;Signal;HPM_P1;HPM_P2
2022/11/05 00:16:42;;;;;;;52.17;22.48;;;10.80;99.90;;;;;;6190734;23;20071;-78
2022/11/05 00:16:56;;;;;;;43.47;15.73;;;10.80;99.90;;;;;;6190430;23;20024;-78
2022/11/05 00:19:23;;;;;;;42.50;16.75;;;10.80;99.90;;;;;;6190975;23;20016;-78
2022/11/05 00:27:21;;;;;;;37.63;13.20;;;10.70;99.90;;;;;;6214565;23;20024;-78
2022/11/05 00:29:48;;;;;;;32.88;12.98;;;10.70;99.90;;;;;;6189762;23;20024;-78
2022/11/05 00:32:15;;;;;;;36.28;14.07;;;10.70;99.90;;;;;;6191942;23;20040;-78
2022/11/05 00:34:42;;;;;;;31.05;12.15;;;10.60;99.90;;;;;;6165751;23;20034;-78
2022/11/05 00:37:23;;;;;;;23.52;10.35;;;10.50;99.90;;;;;;6194608;23;20086;-78
2022/11/05 00:39:50;;;;;;;21.45;9.68;;;10.50;99.90;;;;;;6192014;23;20437;-78
2022/11/05 00:45:03;;;;;;;20.88;8.90;;;10.60;99.90;;;;;;6219412;23;20067;-78
2022/11/05 00:50:20;;;;;;;23.52;10.27;;;10.50;99.90;;;;;;6171559;23;20022;-78
2022/11/05 00:52:55;;;;;;;18.42;8.50;;;10.40;99.90;;;;;;6189528;23;20499;-78
2022/11/05 00:55:55;;;;;;;18.25;8.73;;;10.50;99.90;;;;;;6218734;23;20079;-78
2022/11/05 00:58:23;;;;;;;16.65;8.23;;;10.30;99.90;;;;;;6103948;23;20053;-78
2022/11/05 01:00:52;;;;;;;17.80;7.72;;;10.30;99.90;;;;;;6078366;23;20029;-77
2022/11/05 01:03:23;;;;;;;15.40;6.93;;;10.30;99.90;;;;;;6078040;23;20058;-78
2022/11/05 01:05:52;;;;;;;15.95;6.63;;;10.30;99.90;;;;;;6105235;23;20017;-78
2022/11/05 01:08:22;;;;;;;17.50;8.10;;;10.30;99.90;;;;;;6100110;23;20442;-78
2022/11/05 01:10:51;;;;;;;13.13;6.45;;;10.20;99.90;;;;;;6079415;23;20415;-78
2022/11/05 01:13:28;;;;;;;10.95;5.53;;;10.20;99.90;;;;;;6081275;23;20026;-78
2022/11/05 01:15:56;;;;;;;13.18;5.72;;;10.10;99.90;;;;;;6102930;23;20014;-78
2022/11/05 01:18:23;;;;;;;9.93;5.35;;;10.10;99.90;;;;;;6100043;23;20053;-78
2022/11/05 01:20:50;;;;;;;11.02;5.20;;;10.10;99.90;;;;;;6076324;23;20074;-78
2022/11/05 01:23:17;;;;;;;12.73;5.47;;;10.10;99.90;;;;;;6124154;23;20367;-78
2022/11/05 01:25:45;;;;;;;10.23;5.03;;;10.10;99.90;;;;;;6102204;23;20355;-78
2022/11/05 01:28:12;;;;;;;10.23;4.50;;;10.00;99.90;;;;;;6128719;23;20014;-78
2022/11/05 01:30:39;;;;;;;9.57;4.22;;;9.90;99.90;;;;;;6164896;23;20515;-78
2022/11/05 01:33:06;;;;;;;10.32;4.45;;;10.00;99.90;;;;;;6190166;23;20017;-78
2022/11/05 01:35:34;;;;;;;9.93;4.63;;;10.00;99.90;;;;;;6190769;23;20016;-78
2022/11/05 01:38:01;;;;;;;9.02;4.40;;;10.00;99.90;;;;;;6190595;23;20029;-78
2022/11/05 01:40:28;;;;;;;8.57;4.18;;;10.00;99.90;;;;;;6188473;23;20020;-78
2022/11/05 01:42:55;;;;;;;7.78;4.30;;;10.00;99.90;;;;;;6215144;23;20021;-78
2022/11/05 01:45:26;;;;;;;8.68;4.50;;;9.90;99.90;;;;;;6191262;23;20020;-78
2022/11/05 01:47:58;;;;;;;8.60;4.32;;;10.00;99.90;;;;;;6215573;23;20021;-78
2022/11/05 01:50:33;;;;;;;10.80;4.63;;;10.00;99.90;;;;;;6191009;23;20020;-78
2022/11/05 01:53:07;;;;;;;9.40;4.43;;;9.90;99.90;;;;;;6164313;23;20095;-78
2022/11/05 01:55:39;;;;;;;8.13;4.90;;;9.90;99.90;;;;;;6191068;23;20016;-78
2022/11/05 01:58:09;;;;;;;8.98;3.85;;;9.90;99.90;;;;;;6163555;23;20024;-78
2022/11/05 02:00:38;;;;;;;8.30;3.97;;;9.80;99.90;;;;;;6189979;23;20328;-78
2022/11/05 02:03:05;;;;;;;9.25;4.10;;;9.90;99.90;;;;;;6189832;23;20028;-78
2022/11/05 02:05:33;;;;;;;8.77;4.53;;;9.80;99.90;;;;;;6188546;23;20013;-78
2022/11/05 02:08:02;;;;;;;7.35;4.03;;;9.70;99.90;;;;;;6189441;23;20017;-78
2022/11/05 02:10:29;;;;;;;8.57;4.25;;;9.70;99.90;;;;;;6193786;23;20025;-78
2022/11/05 02:12:56;;;;;;;9.95;4.18;;;9.70;99.90;;;;;;6189121;23;20103;-77
2022/11/05 02:15:42;;;;;;;9.45;4.50;;;9.70;99.90;;;;;;6191640;23;20017;-78
2022/11/05 02:18:23;;;;;;;8.43;4.03;;;9.70;99.90;;;;;;6190377;23;20021;-78
2022/11/05 02:21:02;;;;;;;8.02;4.22;;;9.70;99.90;;;;;;6189747;23;20025;-78
2022/11/05 02:24:05;;;;;;;6.68;4.20;;;9.70;99.90;;;;;;6191299;23;20028;-78
2022/11/05 02:26:57;;;;;;;6.00;3.28;;;9.60;99.90;;;;;;6194437;23;20017;-78
2022/11/05 02:29:55;;;;;;;9.20;3.80;;;9.60;99.90;;;;;;6175325;23;20024;-78
2022/11/05 02:33:02;;;;;;;6.57;3.20;;;9.60;99.90;;;;;;6195656;23;20072;-78
2022/11/05 02:35:46;;;;;;;5.78;3.45;;;9.60;99.90;;;;;;6197408;23;20063;-78
2022/11/05 02:39:08;;;;;;;8.95;4.78;;;9.60;99.90;;;;;;6194037;23;20017;-78
2022/11/05 02:42:20;;;;;;;7.97;3.67;;;9.70;99.90;;;;;;6134571;23;20016;-78
2022/11/05 02:44:57;;;;;;;10.27;4.38;;;9.70;99.90;;;;;;6137576;23;20021;-78
2022/11/05 02:47:43;;;;;;;11.13;4.80;;;9.70;99.90;;;;;;6130099;23;20017;-78
2022/11/05 02:50:34;;;;;;;8.05;4.32;;;9.70;99.90;;;;;;6137687;23;20001;-78
2022/11/05 02:53:10;;;;;;;7.00;3.97;;;9.70;99.90;;;;;;6111401;23;20027;-78
2022/11/05 02:55:46;;;;;;;8.27;4.40;;;9.70;99.90;;;;;;6141070;23;20037;-78
2022/11/05 02:58:13;;;;;;;5.47;3.42;;;9.70;99.90;;;;;;6168500;23;20108;-78
2022/11/05 03:00:47;;;;;;;8.85;4.10;;;9.70;99.90;;;;;;6118240;23;20049;-78
2022/11/05 03:03:22;;;;;;;7.10;3.58;;;9.70;99.90;;;;;;6112344;23;20022;-78
2022/11/05 03:06:05;;;;;;;7.45;3.63;;;9.70;99.90;;;;;;6133826;23;20357;-78
2022/11/05 03:09:08;;;;;;;8.00;3.60;;;9.60;99.90;;;;;;6162079;23;20025;-78
2022/11/05 03:12:02;;;;;;;5.93;3.00;;;9.60;99.90;;;;;;6119125;23;20013;-78
2022/11/05 03:14:53;;;;;;;7.95;3.78;;;9.10;99.90;;;;;;6117775;23;20030;-78
2022/11/05 03:17:40;;;;;;;9.23;4.30;;;9.50;99.90;;;;;;6201545;23;20013;-78
2022/11/05 03:20:23;;;;;;;6.30;3.00;;;9.50;99.90;;;;;;6195256;23;20084;-80
2022/11/05 03:23:13;;;;;;;7.75;3.40;;;10.00;99.90;;;;;;6180388;23;20044;-78
2022/11/05 03:25:54;;;;;;;6.30;3.10;;;9.60;99.90;;;;;;6134094;23;20029;-79
2022/11/05 03:29:18;;;;;;;6.00;3.53;;;9.50;99.90;;;;;;6159649;23;20031;-79
2022/11/05 03:32:08;;;;;;;7.35;3.45;;;9.50;99.90;;;;;;6177203;23;20025;-79
2022/11/05 03:34:50;;;;;;;7.13;4.15;;;9.60;99.90;;;;;;6219608;23;20107;-79
2022/11/05 03:37:22;;;;;;;9.18;4.50;;;8.30;99.90;;;;;;6211169;23;20338;-78
2022/11/05 03:39:55;;;;;;;8.25;4.45;;;9.40;99.90;;;;;;6204221;23;20043;-78
2022/11/05 03:42:27;;;;;;;7.83;3.97;;;9.50;99.90;;;;;;6184545;23;20313;-79
2022/11/05 03:45:00;;;;;;;5.05;2.80;;;9.50;99.90;;;;;;6233723;22;20290;-78
2022/11/05 03:47:50;;;;;;;7.13;3.58;;;9.40;99.90;;;;;;6206854;23;20028;-78
2022/11/05 03:50:37;;;;;;;8.40;3.35;;;9.40;99.90;;;;;;6196268;22;20020;-78
2022/11/05 03:53:23;;;;;;;8.75;4.00;;;9.40;99.90;;;;;;6211039;23;20029;-78
2022/11/05 03:56:25;;;;;;;5.78;3.00;;;9.40;99.90;;;;;;6169791;23;20051;-80
2022/11/05 04:05:13;;;;;;;6.53;2.80;;;9.40;99.90;;;;;;6240890;23;20013;-78
2022/11/05 04:13:47;;;;;;;8.93;3.70;;;9.50;99.90;;;;;;6216334;23;20000;-78
2022/11/05 04:25:29;;;;;;;5.07;2.60;;;9.40;99.90;;;;;;6172689;23;20017;-77
2022/11/05 04:28:04;;;;;;;4.53;2.33;;;9.40;99.90;;;;;;6204865;23;20020;-78
2022/11/05 04:30:52;;;;;;;5.35;2.55;;;9.30;99.90;;;;;;6161400;22;20015;-79
2022/11/05 04:33:37;;;;;;;4.05;2.08;;;9.30;99.90;;;;;;6186531;23;20025;-79
2022/11/05 04:36:06;;;;;;;4.65;2.78;;;9.40;99.90;;;;;;6184425;23;20074;-79
2022/11/05 04:39:08;;;;;;;6.53;2.43;;;9.30;99.90;;;;;;6209137;22;20008;-79
2022/11/05 04:41:36;;;;;;;5.05;2.28;;;9.30;99.90;;;;;;6186546;23;20011;-79
2022/11/05 04:47:46;;;;;;;6.72;2.95;;;9.30;99.90;;;;;;6206482;22;21014;31
2022/11/05 04:53:47;;;;;;;6.90;3.50;;;9.30;99.90;;;;;;6212347;22;19918;-79
2022/11/05 04:59:24;;;;;;;7.82;3.70;;;9.30;99.90;;;;;;6152626;23;20017;-77
2022/11/05 05:01:53;;;;;;;5.50;2.80;;;9.20;99.90;;;;;;6152670;23;20009;-77
2022/11/05 05:04:20;;;;;;;8.57;3.92;;;9.20;99.90;;;;;;6149064;23;20053;-77
2022/11/05 05:31:32;;;;;;;7.30;3.90;;;9.00;99.90;;;;;;6178056;22;20084;-78
2022/11/05 05:38:00;;;;;;;8.60;4.18;;;9.00;99.90;;;;;;6190926;22;20065;-79
2022/11/05 05:40:28;;;;;;;11.45;5.60;;;9.00;99.90;;;;;;6209098;23;20051;-79
2022/11/05 05:42:57;;;;;;;10.15;5.03;;;9.00;99.90;;;;;;6214789;23;20023;-78
2022/11/05 05:45:24;;;;;;;10.25;5.45;;;9.00;99.90;;;;;;6190683;23;20039;-78
2022/11/05 05:47:58;;;;;;;9.82;4.93;;;9.00;99.90;;;;;;6179361;23;20020;-78
2022/11/05 05:50:30;;;;;;;9.90;5.28;;;9.00;99.90;;;;;;6183230;23;20012;-78
2022/11/05 05:53:12;;;;;;;10.15;5.00;;;9.00;99.90;;;;;;6212357;23;20115;-78
2022/11/05 05:59:03;;;;;;;8.75;4.68;;;9.00;99.90;;;;;;6207542;23;20031;-78
2022/11/05 06:01:36;;;;;;;6.60;3.90;;;9.00;99.90;;;;;;6182629;23;20296;-77
2022/11/05 06:04:10;;;;;;;10.07;5.05;;;9.00;99.90;;;;;;6184710;23;20361;-77
2022/11/05 06:06:37;;;;;;;8.88;4.95;;;8.90;99.90;;;;;;6183131;23;20024;-77
2022/11/05 06:09:17;;;;;;;8.65;4.47;;;8.90;99.90;;;;;;6178307;23;20021;-79
2022/11/05 06:11:44;;;;;;;6.80;3.92;;;8.80;99.90;;;;;;6181221;23;20502;-77
2022/11/05 06:14:18;;;;;;;8.95;4.97;;;8.90;99.90;;;;;;6196445;23;20073;-77
2022/11/05 06:16:46;;;;;;;9.02;4.95;;;8.80;99.90;;;;;;6208338;23;20076;-78
2022/11/05 06:19:16;;;;;;;8.55;4.50;;;8.90;99.90;;;;;;6187086;22;20020;-78
2022/11/05 06:21:59;;;;;;;8.85;4.45;;;9.60;99.90;;;;;;6194528;22;20020;-77
2022/11/05 06:24:29;;;;;;;9.38;4.95;;;9.00;99.90;;;;;;6213589;22;20440;-78
2022/11/05 06:27:00;;;;;;;8.75;5.00;;;9.60;99.90;;;;;;6171699;22;20008;-79
2022/11/05 06:29:52;;;;;;;10.80;5.18;;;8.90;99.90;;;;;;6233919;22;20005;-79
2022/11/05 06:32:19;;;;;;;8.90;5.03;;;8.90;99.90;;;;;;6209512;23;20043;-78
2022/11/05 06:34:56;;;;;;;11.02;5.35;;;8.90;99.90;;;;;;6189617;23;20016;-78
2022/11/05 06:37:25;;;;;;;10.20;4.90;;;8.90;99.90;;;;;;6205875;23;20031;-79
2022/11/05 06:39:56;;;;;;;9.73;5.47;;;9.00;99.90;;;;;;6207223;23;20036;-78
2022/11/05 06:42:26;;;;;;;10.48;5.88;;;9.00;99.90;;;;;;6208011;23;20041;-78
2022/11/05 06:48:13;;;;;;;9.07;4.90;;;9.00;99.90;;;;;;6218100;22;20028;-77
2022/11/05 06:51:03;;;;;;;9.25;5.32;;;9.00;99.90;;;;;;6194116;23;20051;-78
2022/11/05 06:53:30;;;;;;;7.95;5.05;;;9.00;99.90;;;;;;6172339;23;20018;-78
2022/11/05 06:56:02;;;;;;;10.75;5.95;;;9.00;99.90;;;;;;6175897;23;20045;-78
2022/11/05 06:58:30;;;;;;;10.60;5.45;;;9.00;99.90;;;;;;6172508;23;20112;-78
2022/11/05 10:29:15;;;;;;;6.78;4.05;;;11.50;99.90;;;;;;6199921;22;20037;31
2022/11/05 10:31:56;;;;;;;6.82;4.13;;;11.50;99.90;;;;;;6158734;23;20013;-79
2022/11/05 10:34:40;;;;;;;11.40;6.45;;;11.60;99.90;;;;;;6145761;23;20004;-79
2022/11/05 10:37:22;;;;;;;;;;;11.60;99.90;;;;;;6171080;22;20004;-79
2022/11/05 10:39:51;;;;;;;9.15;4.63;;;11.70;99.90;;;;;;6189695;22;19916;-79
2022/11/05 10:42:31;;;;;;;22.77;11.57;;;11.80;99.90;;;;;;6184608;23;20016;-79
2022/11/05 10:54:40;;;;;;;7.65;3.70;;;11.90;99.90;;;;;;6190935;22;20021;31
2022/11/05 11:01:31;;;;;;;13.43;6.93;;;11.80;99.90;;;;;;6198021;23;20035;31
2022/11/05 11:04:23;;;;;;;6.00;3.15;;;11.80;99.90;;;;;;6153897;23;20024;31
2022/11/05 11:11:03;;;;;;;3.47;2.15;;;11.70;99.90;;;;;;6197575;23;20050;31
2022/11/05 11:40:48;;;;;;;4.40;3.17;;;12.10;99.90;;;;;;6181069;22;20044;-79
2022/11/05 15:27:50;;;;;;;11.73;7.05;;;11.40;99.90;;;;;;6128702;23;20032;31
2022/11/05 15:37:26;;;;;;;4.40;2.30;;;11.30;99.90;;;;;;6183655;23;20052;-78
2022/11/05 15:39:55;;;;;;;5.00;2.88;;;11.30;99.90;;;;;;6172220;23;20005;-78
2022/11/05 15:42:28;;;;;;;5.30;3.25;;;11.30;99.90;;;;;;6174042;23;20025;-78
2022/11/05 15:44:58;;;;;;;6.80;2.95;;;11.30;99.90;;;;;;6205701;23;19997;-78
2022/11/05 15:47:27;;;;;;;8.77;4.80;;;11.30;99.90;;;;;;6175115;23;20014;-78
2022/11/05 15:50:12;;;;;;;18.83;11.82;;;11.30;99.90;;;;;;6163937;23;20044;-78
2022/11/05 15:52:53;;;;;;;5.25;3.22;;;11.30;99.90;;;;;;6145046;23;20044;-78
2022/11/05 15:55:25;;;;;;;5.07;3.95;;;11.30;99.90;;;;;;6187878;23;20552;-78
2022/11/05 15:57:58;;;;;;;5.95;4.18;;;11.30;99.90;;;;;;6171523;23;20021;-78
2022/11/05 16:00:27;;;;;;;9.90;7.00;;;11.30;99.90;;;;;;6192450;23;20040;-78
2022/11/05 16:03:01;;;;;;;13.27;8.40;;;11.30;99.90;;;;;;6188409;23;20116;-78
2022/11/05 16:05:34;;;;;;;11.18;7.60;;;11.30;99.90;;;;;;6170714;23;20023;-78
2022/11/05 16:08:05;;;;;;;8.05;4.97;;;11.30;99.90;;;;;;6165355;23;20016;-78
2022/11/05 16:10:37;;;;;;;7.97;4.80;;;11.30;99.90;;;;;;6160021;23;20029;-78
2022/11/05 16:13:26;;;;;;;7.88;4.45;;;11.30;99.90;;;;;;6162055;23;20028;-78
2022/11/05 16:15:55;;;;;;;5.45;3.00;;;11.20;99.90;;;;;;6191064;23;20024;-78
2022/11/05 16:18:28;;;;;;;4.90;2.45;;;11.20;99.90;;;;;;6186677;23;20024;-78
2022/11/05 16:21:04;;;;;;;5.47;3.03;;;11.20;99.90;;;;;;6148138;23;20021;-78
2022/11/05 16:23:45;;;;;;;6.93;4.95;;;11.20;99.90;;;;;;6138263;23;20001;-78
2022/11/05 16:26:35;;;;;;;8.82;5.47;;;11.20;99.90;;;;;;6169837;23;20091;-78
2022/11/05 16:29:31;;;;;;;8.77;4.13;;;11.20;99.90;;;;;;6187432;23;20393;-78
2022/11/05 16:32:02;;;;;;;11.20;7.35;;;11.10;99.90;;;;;;6159312;23;20022;-78
2022/11/05 16:34:37;;;;;;;16.23;10.07;;;11.10;99.90;;;;;;6156164;23;20021;-78
2022/11/05 16:37:06;;;;;;;9.80;5.45;;;11.00;99.90;;;;;;6153731;23;20025;-78
2022/11/05 16:39:33;;;;;;;12.23;6.10;;;11.00;99.90;;;;;;6153949;23;20408;-78
2022/11/05 16:42:01;;;;;;;8.63;5.57;;;11.00;99.90;;;;;;6154827;23;20018;-78
2022/11/05 16:44:28;;;;;;;10.05;6.90;;;11.00;99.90;;;;;;6178766;23;20049;-78
2022/11/05 16:46:55;;;;;;;9.05;6.20;;;10.90;99.90;;;;;;6153118;23;20025;-78
2022/11/05 16:49:22;;;;;;;9.95;6.28;;;10.90;99.90;;;;;;6178676;23;20357;-78
2022/11/05 16:51:49;;;;;;;10.35;5.97;;;10.90;99.90;;;;;;6153385;23;20023;-78
2022/11/05 16:54:16;;;;;;;11.02;6.93;;;10.90;99.90;;;;;;6128895;23;20021;-78
2022/11/05 16:56:46;;;;;;;8.30;5.47;;;10.90;99.90;;;;;;6154055;23;20017;-78
2022/11/05 16:59:14;;;;;;;8.20;5.93;;;10.90;99.90;;;;;;6154111;23;20048;-78
2022/11/05 17:01:41;;;;;;;8.55;4.93;;;10.90;99.90;;;;;;6154288;23;20453;-78
2022/11/05 17:04:11;;;;;;;11.55;7.20;;;10.80;99.90;;;;;;6155531;23;20041;-78
2022/11/05 17:06:39;;;;;;;12.07;6.22;;;10.80;99.90;;;;;;6151132;23;20029;-78
2022/11/05 17:09:06;;;;;;;9.50;5.13;;;10.80;99.90;;;;;;6150529;23;20018;-78
2022/11/05 17:11:33;;;;;;;20.70;13.32;;;10.80;99.90;;;;;;6153133;23;20345;-78
2022/11/05 17:14:00;;;;;;;17.17;11.15;;;10.80;99.90;;;;;;6153719;23;20471;-78
2022/11/05 17:16:28;;;;;;;33.17;22.00;;;10.80;99.90;;;;;;6175693;23;20017;-78
2022/11/05 17:18:55;;;;;;;14.60;8.98;;;10.80;99.90;;;;;;6155102;23;20021;-78
2022/11/05 17:21:23;;;;;;;11.93;7.78;;;10.80;99.90;;;;;;6152698;23;20021;-78
2022/11/05 17:23:50;;;;;;;12.82;8.75;;;10.70;99.90;;;;;;6182195;23;20218;-78
2022/11/05 17:26:18;;;;;;;14.13;7.65;;;10.70;99.90;;;;;;6155726;23;20479;-78
2022/11/05 17:28:45;;;;;;;11.10;6.93;;;10.60;99.90;;;;;;6180382;23;20013;-78
2022/11/05 17:31:13;;;;;;;15.70;8.98;;;10.60;99.90;;;;;;6183891;23;20022;-78
2022/11/05 17:33:41;;;;;;;10.23;5.80;;;10.60;99.90;;;;;;6183439;23;20017;-78
2022/11/05 17:36:12;;;;;;;10.13;5.53;;;10.50;99.90;;;;;;6135209;23;20014;-78
2022/11/05 17:38:44;;;;;;;7.60;4.07;;;10.50;99.90;;;;;;6164534;23;20052;-78
2022/11/05 17:41:12;;;;;;;9.88;4.30;;;10.50;99.90;;;;;;6165812;23;20025;-78
2022/11/05 17:43:40;;;;;;;10.85;5.78;;;10.50;99.90;;;;;;6188006;23;20028;-78
2022/11/05 17:46:10;;;;;;;8.95;4.32;;;10.40;99.90;;;;;;6164099;23;20493;-78
2022/11/05 17:48:37;;;;;;;9.45;4.25;;;10.40;99.90;;;;;;6165121;23;20020;-78
2022/11/05 17:51:10;;;;;;;9.30;5.18;;;10.40;99.90;;;;;;6162402;23;20021;-78
2022/11/05 17:53:38;;;;;;;10.93;5.47;;;10.40;99.90;;;;;;6183797;23;20043;-78
2022/11/05 17:56:14;;;;;;;10.90;5.25;;;10.30;99.90;;;;;;6162901;23;20790;-78
2022/11/05 17:58:54;;;;;;;12.75;5.95;;;10.30;99.90;;;;;;6141430;23;20018;-78
2022/11/05 18:01:34;;;;;;;14.57;5.78;;;10.30;99.90;;;;;;6160349;23;20024;-78
2022/11/05 18:04:02;;;;;;;12.98;5.93;;;10.30;99.90;;;;;;6138613;23;20530;-78
2022/11/05 18:06:37;;;;;;;15.38;8.90;;;10.30;99.90;;;;;;6143372;23;20032;-78
2022/11/05 18:09:09;;;;;;;12.63;7.32;;;10.30;99.90;;;;;;6168230;23;20017;-78
2022/11/05 18:11:36;;;;;;;12.52;6.68;;;10.30;99.90;;;;;;6169282;22;20088;-78
2022/11/05 18:14:05;;;;;;;10.27;5.97;;;10.30;99.90;;;;;;6176148;23;20028;-78
2022/11/05 18:16:35;;;;;;;9.40;5.43;;;10.30;99.90;;;;;;6198413;23;20013;-78
2022/11/05 18:19:03;;;;;;;9.60;4.57;;;10.30;99.90;;;;;;6147599;23;20017;-78
2022/11/05 18:21:30;;;;;;;9.43;4.70;;;10.30;99.90;;;;;;6204066;23;20071;-78
2022/11/05 18:23:57;;;;;;;8.88;5.00;;;10.30;99.90;;;;;;6198663;23;20079;-77
2022/11/05 18:26:25;;;;;;;8.88;5.28;;;10.30;99.90;;;;;;6199371;23;20017;-78
2022/11/05 18:28:55;;;;;;;8.77;4.80;;;10.30;99.90;;;;;;6199570;23;20016;-78
2022/11/05 18:31:23;;;;;;;13.85;8.68;;;10.30;99.90;;;;;;6170366;23;20021;-78
2022/11/05 18:33:55;;;;;;;18.70;12.35;;;10.30;99.90;;;;;;6193532;23;20099;-78
2022/11/05 18:36:25;;;;;;;16.52;8.02;;;10.30;99.90;;;;;;6167082;23;20021;-78
2022/11/05 18:38:53;;;;;;;14.48;8.88;;;10.30;99.90;;;;;;6218377;23;20020;-78
2022/11/05 18:41:22;;;;;;;14.77;8.18;;;10.30;99.90;;;;;;6196707;23;20020;-78
2022/11/05 18:44:00;;;;;;;10.40;5.68;;;10.30;99.90;;;;;;6166440;23;20029;-78
2022/11/05 18:46:28;;;;;;;9.90;4.78;;;10.30;99.90;;;;;;6191988;23;20031;-78
2022/11/05 18:49:16;;;;;;;7.53;5.03;;;10.20;99.90;;;;;;6198187;23;20043;-78
2022/11/05 18:51:49;;;;;;;6.82;4.72;;;10.30;99.90;;;;;;6194523;23;20016;-78
2022/11/05 18:54:17;;;;;;;8.02;4.50;;;10.30;99.90;;;;;;6217204;23;20017;-78
2022/11/05 18:56:44;;;;;;;8.02;4.88;;;10.20;99.90;;;;;;6194230;23;20012;-78
2022/11/05 18:59:16;;;;;;;9.30;6.97;;;10.20;99.90;;;;;;6195870;23;20047;-77
2022/11/05 19:02:04;;;;;;;11.88;6.57;;;10.20;99.90;;;;;;6094853;23;20025;-78
2022/11/05 19:04:31;;;;;;;11.68;7.72;;;10.20;99.90;;;;;;6130014;23;20102;-78
2022/11/05 19:06:58;;;;;;;14.48;8.07;;;10.20;99.90;;;;;;6131916;23;20100;-78
2022/11/05 19:09:35;;;;;;;10.85;7.38;;;10.20;99.90;;;;;;6137981;23;20021;-78
2022/11/05 19:12:05;;;;;;;13.15;7.88;;;10.20;99.90;;;;;;6132336;23;20516;-78
2022/11/05 19:14:33;;;;;;;17.98;9.50;;;10.20;99.90;;;;;;6134360;23;20104;-78
2022/11/05 19:17:01;;;;;;;11.68;6.78;;;10.20;99.90;;;;;;6110691;23;20089;-78
2022/11/05 19:19:29;;;;;;;11.30;7.45;;;10.20;99.90;;;;;;6151773;23;20028;-78
2022/11/05 19:21:59;;;;;;;12.30;7.75;;;10.20;99.90;;;;;;6193875;23;20025;-78
2022/11/05 19:24:30;;;;;;;9.95;6.13;;;10.20;99.90;;;;;;6196369;23;20016;-78
2022/11/05 19:26:58;;;;;;;11.80;6.03;;;10.20;99.90;;;;;;6195941;23;20551;-78
2022/11/05 19:29:26;;;;;;;13.25;6.35;;;10.20;99.90;;;;;;6198268;23;20013;-78
2022/11/05 19:31:53;;;;;;;9.88;6.15;;;10.20;99.90;;;;;;6195982;23;20695;-78
2022/11/05 19:34:21;;;;;;;9.73;6.15;;;10.20;99.90;;;;;;6171852;23;20070;-78
2022/11/05 19:36:48;;;;;;;5.93;3.05;;;10.20;99.90;;;;;;6198849;23;20019;-78
2022/11/05 19:39:18;;;;;;;5.25;3.20;;;10.20;99.90;;;;;;6195879;23;20020;-78
2022/11/05 19:41:49;;;;;;;5.22;3.20;;;10.20;99.90;;;;;;6171110;23;20028;-78
2022/11/05 19:44:17;;;;;;;6.22;2.70;;;10.20;99.90;;;;;;6105261;23;20022;-78
2022/11/05 19:46:45;;;;;;;4.78;2.83;;;10.10;99.90;;;;;;6104866;23;20021;-78
2022/11/05 19:49:15;;;;;;;6.15;3.70;;;10.20;99.90;;;;;;6102912;23;20061;-78
2022/11/05 19:51:43;;;;;;;8.35;4.45;;;10.20;99.90;;;;;;6126825;23;20049;-78
2022/11/05 19:54:10;;;;;;;6.00;3.33;;;10.20;99.90;;;;;;6123389;23;20022;-78
2022/11/05 19:56:37;;;;;;;6.20;3.38;;;10.20;99.90;;;;;;6098505;23;20027;-78
2022/11/05 19:59:05;;;;;;;6.68;3.22;;;10.20;99.90;;;;;;6099106;23;20029;-78
2022/11/05 20:01:33;;;;;;;7.45;4.68;;;10.20;99.90;;;;;;6097770;23;20842;-78
2022/11/05 20:04:02;;;;;;;8.07;4.05;;;10.20;99.90;;;;;;6101263;23;20511;-78
2022/11/05 20:06:36;;;;;;;7.32;3.90;;;10.10;99.90;;;;;;6124409;23;20049;-78
2022/11/05 20:09:10;;;;;;;11.23;5.50;;;10.10;99.90;;;;;;6126757;23;20028;-78
2022/11/05 20:11:55;;;;;;;6.97;3.58;;;10.10;99.90;;;;;;6108845;23;20354;-78
2022/11/05 20:14:26;;;;;;;6.30;3.20;;;10.10;99.90;;;;;;6145934;23;20013;-78
2022/11/05 20:16:53;;;;;;;6.13;3.25;;;10.10;99.90;;;;;;6223096;23;19996;-78
2022/11/05 20:19:21;;;;;;;8.90;4.63;;;10.10;99.90;;;;;;6195474;23;20021;-78
2022/11/05 20:21:50;;;;;;;8.25;4.28;;;10.10;99.90;;;;;;6219666;23;20020;-78
2022/11/05 20:24:19;;;;;;;10.75;6.45;;;10.10;99.90;;;;;;6223431;23;20027;-78
2022/11/05 20:26:53;;;;;;;5.07;2.78;;;10.10;99.90;;;;;;6198662;23;20418;-78
2022/11/05 20:29:20;;;;;;;6.07;3.15;;;10.10;99.90;;;;;;6194023;23;20047;-78
2022/11/05 20:31:48;;;;;;;7.60;3.63;;;10.00;99.90;;;;;;6218354;23;20020;-78
2022/11/05 20:34:15;;;;;;;7.60;3.92;;;10.10;99.90;;;;;;6218433;23;20024;-78
2022/11/05 20:36:46;;;;;;;7.05;2.90;;;10.10;99.90;;;;;;6193684;23;20029;-78
2022/11/05 20:39:14;;;;;;;7.22;3.15;;;10.10;99.90;;;;;;6242137;23;20666;-78
2022/11/05 20:41:41;;;;;;;8.38;3.97;;;10.10;99.90;;;;;;6223982;23;20082;-78
2022/11/05 20:44:09;;;;;;;7.93;3.53;;;10.10;99.90;;;;;;6221131;23;20024;-78
2022/11/05 20:46:37;;;;;;;6.60;2.75;;;10.10;99.90;;;;;;6247696;23;20027;-78
2022/11/05 20:49:06;;;;;;;6.88;2.95;;;10.10;99.90;;;;;;6192896;23;20738;-78
2022/11/05 20:51:34;;;;;;;5.03;2.92;;;10.00;99.90;;;;;;6220558;23;20467;-78
2022/11/05 20:54:02;;;;;;;7.43;3.30;;;10.10;99.90;;;;;;6220733;23;20028;-78
2022/11/05 20:56:45;;;;;;;6.43;3.33;;;10.10;99.90;;;;;;6223926;23;20008;-78
2022/11/05 20:59:15;;;;;;;6.85;3.00;;;10.10;99.90;;;;;;6222284;23;20347;-78
2022/11/05 21:01:42;;;;;;;5.53;2.95;;;10.10;99.90;;;;;;6218899;23;20017;-78
2022/11/05 21:04:10;;;;;;;5.57;3.08;;;10.10;99.90;;;;;;6221600;23;20021;-78
2022/11/05 21:06:38;;;;;;;7.30;3.58;;;10.00;99.90;;;;;;6199524;23;20024;-78
2022/11/05 21:09:06;;;;;;;6.50;2.92;;;10.10;99.90;;;;;;6194637;23;20079;-78
2022/11/05 21:14:20;;;;;;;8.88;4.30;;;10.10;99.90;;;;;;6195130;23;20020;-78
2022/11/05 21:16:49;;;;;;;6.07;3.00;;;10.10;99.90;;;;;;6196018;23;20024;-78
2022/11/05 21:19:17;;;;;;;6.95;2.53;;;10.10;99.90;;;;;;6196262;23;20021;-78
2022/11/05 21:21:44;;;;;;;5.72;2.88;;;10.10;99.90;;;;;;6194068;23;20081;-78
2022/11/05 21:24:13;;;;;;;5.03;2.97;;;10.00;99.90;;;;;;6192081;23;20017;-78
2022/11/05 21:26:40;;;;;;;6.13;2.95;;;10.00;99.90;;;;;;6170412;23;20020;-78
2022/11/05 21:29:11;;;;;;;8.43;3.65;;;10.00;99.90;;;;;;6196611;23;20016;-78
2022/11/05 21:31:38;;;;;;;6.93;3.40;;;10.10;99.90;;;;;;6195551;23;20329;-78
2022/11/05 21:34:06;;;;;;;7.78;3.58;;;10.10;99.90;;;;;;6202595;23;20017;-78
2022/11/05 21:36:36;;;;;;;5.75;3.10;;;10.10;99.90;;;;;;6197983;23;20017;-78
2022/11/05 21:39:06;;;;;;;7.45;4.55;;;10.00;99.90;;;;;;6199609;23;20729;-78
2022/11/05 21:41:43;;;;;;;6.68;3.20;;;10.00;99.90;;;;;;6175596;23;20027;-78
2022/11/05 21:44:11;;;;;;;10.07;4.75;;;10.10;99.90;;;;;;6175844;23;20024;-78
2022/11/05 21:46:38;;;;;;;9.55;4.75;;;10.10;99.90;;;;;;6197899;23;20113;-78
2022/11/05 21:49:05;;;;;;;7.68;3.08;;;10.10;99.90;;;;;;6197473;23;20048;-78
2022/11/05 22:00:12;;;;;;;5.47;2.25;;;10.00;99.90;;;;;;6222658;23;20736;-78
2022/11/05 22:02:46;;;;;;;4.85;2.53;;;10.10;99.90;;;;;;6197014;23;20045;-78
2022/11/05 22:05:13;;;;;;;5.75;2.17;;;10.00;99.90;;;;;;6196707;23;20031;-78
2022/11/05 22:07:42;;;;;;;5.45;3.00;;;10.00;99.90;;;;;;6196266;23;20107;-78
2022/11/05 22:10:11;;;;;;;5.95;3.17;;;10.10;99.90;;;;;;6194225;23;20683;-78
2022/11/05 22:12:43;;;;;;;;;;;10.00;99.90;;;;;;6212692;23;20093;-78
2022/11/05 22:15:11;;;;;;;5.28;2.45;;;10.00;99.90;;;;;;6196234;23;20007;-78
2022/11/05 22:17:38;;;;;;;4.03;2.20;;;10.10;99.90;;;;;;6224790;23;20392;-78
2022/11/05 22:20:14;;;;;;;3.90;2.03;;;10.00;99.90;;;;;;6225281;23;20466;-78
2022/11/05 22:22:44;;;;;;;4.57;2.42;;;10.10;99.90;;;;;;6224166;23;20020;-78
2022/11/05 22:25:14;;;;;;;4.95;2.60;;;10.00;99.90;;;;;;6219538;23;20404;-78
2022/11/05 22:27:42;;;;;;;6.18;2.05;;;10.00;99.90;;;;;;6218969;23;20024;-78
2022/11/05 22:30:10;;;;;;;4.93;2.70;;;10.00;99.90;;;;;;6218798;23;20023;-78
2022/11/05 22:32:39;;;;;;;3.95;2.10;;;10.00;99.90;;;;;;6189704;23;20445;-78
2022/11/05 22:35:07;;;;;;;5.32;2.72;;;10.00;99.90;;;;;;6193614;23;20020;-78
2022/11/05 22:37:34;;;;;;;6.30;3.13;;;10.00;99.90;;;;;;6217977;23;20609;-78
2022/11/05 22:40:01;;;;;;;5.20;3.03;;;10.00;99.90;;;;;;6191887;23;20030;-78
2022/11/05 22:42:28;;;;;;;5.03;2.97;;;10.00;99.90;;;;;;6218665;23;20086;-78
2022/11/05 22:44:57;;;;;;;5.25;2.35;;;10.10;99.90;;;;;;6216739;23;20036;-78
2022/11/05 22:47:30;;;;;;;5.72;2.72;;;10.00;99.90;;;;;;6192781;23;20363;-78
2022/11/05 22:50:03;;;;;;;4.75;2.80;;;10.00;99.90;;;;;;6191117;23;20067;-78
2022/11/05 22:52:31;;;;;;;5.00;3.10;;;10.00;99.90;;;;;;6214182;23;20025;-78
2022/11/05 22:55:01;;;;;;;5.93;2.70;;;10.00;99.90;;;;;;6216713;23;20090;-78
2022/11/05 22:57:28;;;;;;;4.05;2.25;;;10.10;99.90;;;;;;6214787;23;20028;-78
2022/11/05 22:59:55;;;;;;;3.17;1.60;;;10.10;99.90;;;;;;6217825;23;20066;-78
2022/11/05 23:02:22;;;;;;;5.35;3.22;;;10.10;99.90;;;;;;6222557;23;20079;-78
2022/11/05 23:04:50;;;;;;;8.98;4.85;;;10.10;99.90;;;;;;6196053;23;20024;-78